Mekoryuk, Alaska
Current Conditions -  °F | °C
As of 10:36 AM on Thursday 23 Oct 2014 (Local Time) from PAMY Reporting Station
Overcast Overcast  
Wind Chill: 30°   Ceiling: 2200
Heat Index: 37°   Visibility: 9mi
Dew Point: 30°   Wind: 12mph
Humidity: 75%   Direction: 190°S
Pressure: 29.74"   Gusts: 17mph
Location:  60.39°N, 166.19°W
Report Text: PAMY 231836Z AUTO 19010G15KT 9SM BKN022 OVC032 03/M01 A2974 RMK AO1
Loading
Personal Weather Stations






























Interactive Weather Map
Tropical Storm Tracking
New forecast layout! Learn more

10-Day Weather Forecast

Advertisements
Track Severe Weather on mobile